Time;durP1;ratioP1;P1;durP2;ratioP2;P2;SDS_P1;SDS_P2;PMS_P1;PMS_P2;Temp;Humidity;BMP_temperature;BMP_pressure;BME280_temperature;BME280_humidity;BME280_pressure;Samples;Min_cycle;Max_cycle;Signal;HPM_P1;HPM_P2
2022/08/24 00:02:24;;;;;;;6.13;1.67;;;20.80;70.40;;;;;;4936235;28;20579;-76
2022/08/24 00:04:51;;;;;;;5.35;2.47;;;20.80;70.50;;;;;;4944074;28;20034;-76
2022/08/24 00:07:18;;;;;;;5.15;2.25;;;20.80;70.00;;;;;;4944504;29;20035;-76
2022/08/24 00:09:44;;;;;;;5.22;2.40;;;20.80;70.00;;;;;;4949697;28;20086;-76
2022/08/24 00:12:10;;;;;;;3.53;1.63;;;20.80;69.90;;;;;;4949681;28;20032;-76
2022/08/24 00:14:36;;;;;;;2.20;1.75;;;20.70;70.10;;;;;;4945052;28;20724;-76
2022/08/24 00:17:02;;;;;;;5.00;2.13;;;20.70;70.60;;;;;;4948675;28;20073;-76
2022/08/24 00:19:28;;;;;;;2.90;1.85;;;20.70;70.40;;;;;;4946921;28;20050;-76
2022/08/24 00:21:53;;;;;;;3.60;1.92;;;20.70;70.50;;;;;;4948157;28;20563;-76
2022/08/24 00:24:19;;;;;;;2.95;1.50;;;20.70;70.80;;;;;;4947715;28;20023;-76
2022/08/24 00:26:46;;;;;;;4.15;2.20;;;20.70;70.80;;;;;;4949977;28;20028;-76
2022/08/24 00:29:15;;;;;;;2.83;2.20;;;20.60;70.60;;;;;;4949088;28;20038;-76
2022/08/24 00:31:41;;;;;;;5.05;2.30;;;20.70;70.70;;;;;;4941330;28;20070;-76
2022/08/24 00:34:06;;;;;;;2.47;1.10;;;20.60;70.70;;;;;;4948013;28;20086;-76
2022/08/24 00:36:33;;;;;;;4.72;1.92;;;20.50;71.10;;;;;;4947792;28;20023;-76
2022/08/24 00:38:59;;;;;;;4.93;3.08;;;20.50;71.00;;;;;;4948465;28;20058;-76
2022/08/24 00:41:25;;;;;;;3.70;1.80;;;20.40;71.20;;;;;;4946582;28;20183;-76
2022/08/24 00:44:00;;;;;;;3.70;2.38;;;20.40;71.50;;;;;;4948193;28;20024;-76
2022/08/24 00:46:31;;;;;;;3.28;1.52;;;20.40;71.60;;;;;;4946078;28;20101;-76
2022/08/24 00:49:05;;;;;;;5.18;1.73;;;20.40;71.60;;;;;;4948723;28;20035;-76
2022/08/24 00:51:38;;;;;;;5.07;2.08;;;20.30;71.90;;;;;;4949712;28;20357;-76
2022/08/24 00:54:08;;;;;;;5.80;1.80;;;20.30;71.90;;;;;;4944373;29;20058;-77
2022/08/24 00:56:40;;;;;;;4.50;1.60;;;20.30;72.30;;;;;;4949251;28;20574;-77
2022/08/24 00:59:13;;;;;;;4.47;1.83;;;20.30;72.10;;;;;;4949161;28;20034;-77
2022/08/24 01:01:39;;;;;;;3.22;2.10;;;20.30;72.10;;;;;;4942307;29;20484;-77
2022/08/24 01:04:09;;;;;;;2.47;2.20;;;20.20;72.10;;;;;;4949593;29;20038;-77
2022/08/24 01:06:35;;;;;;;5.63;1.88;;;20.20;72.00;;;;;;4945742;28;20027;-77
2022/08/24 01:09:00;;;;;;;3.30;1.50;;;20.20;72.00;;;;;;4946537;28;20031;-77
2022/08/24 01:11:29;;;;;;;4.95;2.00;;;20.20;72.10;;;;;;4947149;28;20042;-77
2022/08/24 01:13:56;;;;;;;4.55;2.00;;;20.20;72.20;;;;;;4948930;28;20028;-77
2022/08/24 01:19:30;;;;;;;3.88;3.15;;;20.10;72.50;;;;;;4949240;28;20038;-76
2022/08/24 01:22:19;;;;;;;5.20;2.13;;;20.00;72.20;;;;;;4946491;28;20034;-76
2022/08/24 01:24:46;;;;;;;4.50;2.08;;;20.00;72.60;;;;;;4946613;28;20054;-76
2022/08/24 01:27:13;;;;;;;3.88;2.05;;;20.00;73.10;;;;;;4947554;29;20063;-76
2022/08/24 01:29:40;;;;;;;7.13;2.65;;;19.90;72.90;;;;;;4942643;28;20208;-76
2022/08/24 01:32:06;;;;;;;4.63;1.88;;;20.00;73.00;;;;;;4941834;23;20055;-76
2022/08/24 01:34:31;;;;;;;3.85;2.75;;;19.90;72.80;;;;;;4921712;29;20028;-76
2022/08/24 01:36:59;;;;;;;5.32;2.38;;;19.90;73.70;;;;;;4921509;29;20039;-76
2022/08/24 01:39:29;;;;;;;5.05;3.47;;;19.90;73.30;;;;;;4920425;29;20405;-76
2022/08/24 01:41:55;;;;;;;4.22;1.90;;;19.70;73.30;;;;;;4920768;29;20024;-76
2022/08/24 01:44:23;;;;;;;9.52;6.05;;;19.70;73.90;;;;;;4917954;29;20032;-77
2022/08/24 01:46:53;;;;;;;6.93;3.47;;;19.70;74.00;;;;;;4920107;29;20416;-76
2022/08/24 01:49:22;;;;;;;6.82;4.53;;;19.60;73.80;;;;;;4920303;29;20032;-76
2022/08/24 01:51:48;;;;;;;12.88;6.88;;;19.60;74.30;;;;;;4921733;29;20063;-76
2022/08/24 01:54:14;;;;;;;8.23;4.28;;;19.50;74.40;;;;;;4919551;29;20207;-76
2022/08/24 01:56:39;;;;;;;6.53;4.00;;;19.40;74.60;;;;;;4920909;29;20048;-76
2022/08/24 01:59:06;;;;;;;10.45;6.05;;;19.40;74.70;;;;;;4920934;29;20031;-76
2022/08/24 02:01:36;;;;;;;6.43;3.13;;;19.40;74.80;;;;;;4920758;29;20032;-76
2022/08/24 02:04:05;;;;;;;6.25;4.15;;;19.50;74.70;;;;;;4923933;29;20059;-76
2022/08/24 02:06:31;;;;;;;15.45;9.38;;;19.50;74.40;;;;;;4923717;29;20069;-76
2022/08/24 02:08:58;;;;;;;7.32;3.63;;;19.40;74.50;;;;;;4923698;29;20158;-76
2022/08/24 02:11:24;;;;;;;4.78;3.13;;;19.40;75.10;;;;;;4925437;29;20242;-76
2022/08/24 02:13:49;;;;;;;10.65;4.50;;;19.40;75.10;;;;;;4924210;29;20023;-75
2022/08/24 02:16:15;;;;;;;4.20;2.55;;;19.40;75.30;;;;;;4921601;29;20040;-76
2022/08/24 02:18:41;;;;;;;4.78;2.45;;;19.40;75.30;;;;;;4923691;29;20029;-76
2022/08/24 02:21:08;;;;;;;9.32;3.25;;;19.30;75.80;;;;;;4923047;29;20160;-76
2022/08/24 02:23:36;;;;;;;4.35;2.58;;;19.10;76.70;;;;;;4923475;29;20184;-76
2022/08/24 02:26:03;;;;;;;10.25;7.75;;;19.00;77.70;;;;;;4922770;29;20028;-77
2022/08/24 02:28:28;;;;;;;11.98;6.25;;;18.90;77.10;;;;;;4925003;29;20032;-76
2022/08/24 02:30:54;;;;;;;5.13;2.35;;;18.90;77.20;;;;;;4921609;29;20079;-76
2022/08/24 02:33:22;;;;;;;4.55;2.05;;;18.90;77.90;;;;;;4925446;29;20182;-77
2022/08/24 02:35:48;;;;;;;18.35;2.83;;;18.80;78.40;;;;;;4921134;29;20020;-77
2022/08/24 02:38:14;;;;;;;4.88;2.95;;;18.70;78.50;;;;;;4922884;29;20547;-77
2022/08/24 02:40:39;;;;;;;7.15;3.38;;;18.60;78.50;;;;;;4922989;29;20502;-77
2022/08/24 02:43:05;;;;;;;5.70;3.72;;;18.70;78.80;;;;;;4922978;29;20066;-75
2022/08/24 02:45:31;;;;;;;4.95;3.85;;;18.80;78.50;;;;;;4922309;29;20043;-76
2022/08/24 02:47:57;;;;;;;9.18;3.50;;;18.80;78.40;;;;;;4925419;29;20028;-78
2022/08/24 02:50:25;;;;;;;6.63;2.75;;;18.90;78.50;;;;;;4923709;29;20500;-77
2022/08/24 02:52:51;;;;;;;3.63;1.90;;;18.90;78.50;;;;;;4922166;29;20035;-77
2022/08/24 02:55:17;;;;;;;3.97;2.20;;;18.90;78.40;;;;;;4921622;29;20036;-76
2022/08/24 02:57:43;;;;;;;5.25;2.88;;;18.80;78.40;;;;;;4892327;29;20031;-76
2022/08/24 03:00:12;;;;;;;7.35;4.57;;;18.70;78.40;;;;;;4922347;29;20029;-76
2022/08/24 03:02:39;;;;;;;3.60;2.75;;;18.60;79.30;;;;;;4924565;29;20071;-76
2022/08/24 03:05:05;;;;;;;8.50;3.25;;;18.50;79.30;;;;;;4922556;29;20028;-77
2022/08/24 03:07:31;;;;;;;5.70;2.65;;;18.60;79.80;;;;;;4922686;29;20752;-76
2022/08/24 03:09:56;;;;;;;5.18;3.00;;;18.60;79.70;;;;;;4922281;29;20031;-76
2022/08/24 03:12:22;;;;;;;4.53;2.30;;;18.60;79.50;;;;;;4921592;29;20497;-76
2022/08/24 03:14:47;;;;;;;5.40;3.50;;;18.70;79.80;;;;;;4923299;29;20543;-76
2022/08/24 03:17:13;;;;;;;4.70;2.10;;;18.70;79.30;;;;;;4922803;29;20070;-77
2022/08/24 03:19:39;;;;;;;7.07;2.45;;;18.60;79.60;;;;;;4923186;29;20507;-77
2022/08/24 03:22:04;;;;;;;4.38;3.13;;;18.70;79.80;;;;;;4922581;29;20024;-77
2022/08/24 03:24:30;;;;;;;3.25;2.08;;;18.60;79.60;;;;;;4919126;29;20036;-77
2022/08/24 03:26:55;;;;;;;4.07;2.70;;;18.50;80.20;;;;;;4924813;29;20488;-76
2022/08/24 03:29:21;;;;;;;4.15;3.25;;;18.60;80.30;;;;;;4922606;29;20062;-76
2022/08/24 03:31:47;;;;;;;4.72;2.20;;;18.70;79.80;;;;;;4923466;29;20032;-76
2022/08/24 03:34:13;;;;;;;5.00;2.28;;;18.70;79.80;;;;;;4923527;29;20103;-76
2022/08/24 03:36:40;;;;;;;6.35;2.55;;;18.70;80.20;;;;;;4923008;29;20067;-76
2022/08/24 03:39:06;;;;;;;6.13;3.30;;;18.50;80.50;;;;;;4921004;29;20119;-76
2022/08/24 03:41:31;;;;;;;8.95;5.72;;;18.60;80.70;;;;;;4918894;29;20111;-77
2022/08/24 03:43:57;;;;;;;7.15;3.35;;;18.70;80.70;;;;;;4923419;29;20049;-75
2022/08/24 03:46:27;;;;;;;9.23;5.35;;;18.70;80.60;;;;;;4922183;29;20575;-76
2022/08/24 03:48:57;;;;;;;24.38;17.35;;;18.60;80.90;;;;;;4923369;29;20084;-76
2022/08/24 03:51:26;;;;;;;9.95;7.03;;;18.70;80.60;;;;;;4920181;29;20091;-76
2022/08/24 03:53:52;;;;;;;9.73;6.60;;;18.70;81.00;;;;;;4921475;29;20028;-76
2022/08/24 03:56:17;;;;;;;13.98;7.68;;;18.70;81.10;;;;;;4922798;29;20083;-77
2022/08/24 03:58:43;;;;;;;7.97;5.85;;;18.70;81.10;;;;;;4920336;29;20028;-75
2022/08/24 04:01:10;;;;;;;9.27;5.72;;;18.80;81.50;;;;;;4919427;29;20116;-75
2022/08/24 04:03:38;;;;;;;13.68;5.38;;;18.90;81.30;;;;;;4922677;29;20555;-76
2022/08/24 04:06:05;;;;;;;5.82;4.63;;;18.80;81.50;;;;;;4921327;29;20417;-74
2022/08/24 04:08:31;;;;;;;6.95;5.35;;;18.80;81.80;;;;;;4921587;29;20485;-75
2022/08/24 04:10:57;;;;;;;11.30;4.47;;;18.80;81.60;;;;;;4921422;29;20036;-76
2022/08/24 04:13:23;;;;;;;13.40;6.80;;;18.70;81.90;;;;;;4921705;29;20032;-73
2022/08/24 04:15:51;;;;;;;18.25;11.25;;;18.50;81.90;;;;;;4916375;29;20238;-75
2022/08/24 04:18:17;;;;;;;10.93;9.20;;;18.40;82.20;;;;;;4919031;29;20036;-76
2022/08/24 04:20:43;;;;;;;23.25;12.85;;;18.50;82.30;;;;;;4921290;29;20290;-75
2022/08/24 04:23:10;;;;;;;9.10;4.78;;;18.40;82.10;;;;;;4916423;29;20071;-75
2022/08/24 04:25:41;;;;;;;6.32;3.28;;;18.40;82.70;;;;;;4912876;29;20127;-75
2022/08/24 04:28:07;;;;;;;7.80;5.20;;;18.40;82.30;;;;;;4920994;29;20127;-74
2022/08/24 04:30:32;;;;;;;9.48;5.18;;;18.30;83.60;;;;;;4919570;29;20127;-74
2022/08/24 04:32:58;;;;;;;7.15;3.42;;;18.20;83.80;;;;;;4918833;29;20077;-74
2022/08/24 04:35:23;;;;;;;9.85;4.35;;;18.30;83.80;;;;;;4920118;29;20481;-75
2022/08/24 04:37:49;;;;;;;12.07;6.45;;;18.40;84.10;;;;;;4922843;29;20046;-74
2022/08/24 04:40:14;;;;;;;12.23;6.32;;;18.60;83.70;;;;;;4921943;29;20059;-74
2022/08/24 04:42:40;;;;;;;10.88;4.75;;;18.70;83.60;;;;;;4920286;29;20043;-75
2022/08/24 04:45:06;;;;;;;8.13;5.30;;;18.90;83.10;;;;;;4922565;29;20028;-75
2022/08/24 04:47:31;;;;;;;5.68;3.40;;;19.00;82.80;;;;;;4923443;29;20036;-75
2022/08/24 04:49:56;;;;;;;9.65;4.35;;;19.20;82.30;;;;;;4922858;29;20026;-73
2022/08/24 04:52:23;;;;;;;7.07;3.83;;;19.20;82.20;;;;;;4922861;29;20519;-76
2022/08/24 04:54:48;;;;;;;10.85;5.00;;;19.40;82.50;;;;;;4922787;29;20035;-74
2022/08/24 04:57:14;;;;;;;5.53;2.83;;;19.60;82.00;;;;;;4923142;29;20024;-75
2022/08/24 04:59:40;;;;;;;9.55;3.33;;;19.80;81.50;;;;;;4920650;29;20032;-75
2022/08/24 05:02:05;;;;;;;9.00;3.80;;;20.10;81.10;;;;;;4922886;29;20117;-74
2022/08/24 05:04:31;;;;;;;11.80;4.88;;;20.30;80.50;;;;;;4924855;29;20230;-74
2022/08/24 05:06:56;;;;;;;6.68;3.35;;;20.50;80.00;;;;;;4923740;29;20028;-74
2022/08/24 05:09:22;;;;;;;6.47;3.75;;;20.70;79.60;;;;;;4920288;29;20036;-75
2022/08/24 05:11:48;;;;;;;5.38;2.03;;;20.90;79.40;;;;;;4922781;29;20035;-75
2022/08/24 05:14:13;;;;;;;3.92;1.70;;;21.10;78.60;;;;;;4922937;29;20067;-75
2022/08/24 05:16:39;;;;;;;3.72;2.08;;;21.10;77.30;;;;;;4922192;29;20500;-74
2022/08/24 05:19:05;;;;;;;6.47;4.53;;;21.00;77.40;;;;;;4922579;29;20245;-74
2022/08/24 05:21:32;;;;;;;9.95;5.85;;;21.10;77.30;;;;;;4922476;29;20052;-74
2022/08/24 05:23:57;;;;;;;9.70;3.28;;;21.20;77.00;;;;;;4922203;29;20035;-75
2022/08/24 05:26:26;;;;;;;7.25;2.38;;;21.30;76.70;;;;;;4921514;29;20016;-74
2022/08/24 05:28:57;;;;;;;9.15;3.97;;;21.10;76.40;;;;;;4922067;29;20028;-74
2022/08/24 05:31:25;;;;;;;4.43;3.58;;;20.90;77.30;;;;;;4921653;29;20032;-75
2022/08/24 05:33:51;;;;;;;7.20;3.17;;;20.80;77.30;;;;;;4922618;29;20060;-75
2022/08/24 05:36:20;;;;;;;7.15;2.88;;;20.80;77.80;;;;;;4924060;29;20087;-75
2022/08/24 05:38:48;;;;;;;5.22;2.83;;;20.50;77.80;;;;;;4922464;29;20040;-76
2022/08/24 05:41:15;;;;;;;12.32;7.50;;;20.30;78.60;;;;;;4922298;29;20031;-76
2022/08/24 05:43:41;;;;;;;11.68;6.22;;;20.20;79.00;;;;;;4920610;29;20028;-76
2022/08/24 05:46:06;;;;;;;11.52;3.95;;;20.30;79.60;;;;;;4921842;29;20032;-76
2022/08/24 05:48:34;;;;;;;6.88;4.18;;;20.40;79.10;;;;;;4922370;29;20047;-76
2022/08/24 05:51:00;;;;;;;7.35;5.78;;;20.50;79.00;;;;;;4921630;29;20030;-76
2022/08/24 05:53:26;;;;;;;15.38;12.15;;;20.60;78.80;;;;;;4922090;29;20056;-77
2022/08/24 05:55:52;;;;;;;7.10;4.70;;;20.80;78.70;;;;;;4923643;29;20075;-78
2022/08/24 05:58:17;;;;;;;22.52;16.20;;;20.80;78.40;;;;;;4921281;29;20024;-77
2022/08/24 06:00:44;;;;;;;12.10;4.97;;;20.70;78.10;;;;;;4922624;29;20031;-78
2022/08/24 06:03:13;;;;;;;7.57;5.28;;;20.60;78.50;;;;;;4922474;29;20059;-78
2022/08/24 06:05:40;;;;;;;9.02;5.45;;;20.60;78.70;;;;;;4923449;29;20051;-77
2022/08/24 06:08:07;;;;;;;12.52;7.65;;;20.60;78.90;;;;;;4922197;29;20050;-78
2022/08/24 06:10:42;;;;;;;7.15;4.63;;;20.50;78.70;;;;;;4904991;29;20828;-78
2022/08/24 06:13:07;;;;;;;11.85;3.95;;;20.50;79.00;;;;;;4923186;29;20028;-77
2022/08/24 06:15:34;;;;;;;7.55;4.30;;;20.50;79.30;;;;;;4920791;29;20448;-78
2022/08/24 06:18:00;;;;;;;5.20;3.72;;;20.50;79.70;;;;;;4922983;29;20024;-78
2022/08/24 06:20:26;;;;;;;7.63;4.10;;;20.50;79.70;;;;;;4922082;29;20023;-78
2022/08/24 06:22:51;;;;;;;5.95;3.53;;;20.60;79.90;;;;;;4922616;29;20477;-78
2022/08/24 06:28:01;;;;;;;9.40;5.22;;;20.60;79.80;;;;;;4923977;29;20071;-78
2022/08/24 06:30:26;;;;;;;6.68;4.13;;;20.60;79.80;;;;;;4920272;29;20072;-78
2022/08/24 06:32:52;;;;;;;8.02;3.58;;;20.80;79.90;;;;;;4922615;29;20032;-78
2022/08/24 06:35:17;;;;;;;10.35;3.15;;;20.90;79.70;;;;;;4922531;29;20059;-81
2022/08/24 06:37:43;;;;;;;6.97;2.90;;;20.90;79.60;;;;;;4922550;29;20088;-80
2022/08/24 06:40:09;;;;;;;29.85;22.00;;;21.00;79.60;;;;;;4923708;29;20123;-81
2022/08/24 06:42:35;;;;;;;26.13;17.10;;;21.00;79.60;;;;;;4906003;29;20032;-79
2022/08/24 06:45:01;;;;;;;11.25;7.85;;;21.10;79.80;;;;;;4925612;29;20075;-80
2022/08/24 06:47:27;;;;;;;11.52;6.35;;;21.20;79.50;;;;;;4922073;29;20036;-78
2022/08/24 06:49:53;;;;;;;3.92;3.13;;;21.20;79.50;;;;;;4926130;29;20079;-80
2022/08/24 06:52:18;;;;;;;10.73;6.00;;;21.30;79.80;;;;;;4927268;29;20043;-80
2022/08/24 06:54:44;;;;;;;25.27;9.38;;;21.30;79.80;;;;;;4927997;29;20024;-80
2022/08/24 06:57:09;;;;;;;9.52;3.75;;;21.40;79.90;;;;;;4928271;29;20028;-81
2022/08/24 06:59:35;;;;;;;13.98;4.28;;;21.50;80.00;;;;;;4928533;29;20031;-81
2022/08/24 07:02:01;;;;;;;9.00;3.13;;;21.60;80.00;;;;;;4927920;29;20580;-83
2022/08/24 07:04:26;;;;;;;4.90;2.80;;;21.80;79.70;;;;;;4925937;29;20028;-79
2022/08/24 07:06:53;;;;;;;9.55;3.80;;;21.90;79.70;;;;;;4926075;29;20045;-79
2022/08/24 07:09:19;;;;;;;4.63;2.40;;;21.90;79.40;;;;;;4924562;29;20437;-78
2022/08/24 07:11:44;;;;;;;12.43;3.28;;;22.00;79.40;;;;;;4925772;29;20116;-78
2022/08/24 07:14:10;;;;;;;5.03;2.80;;;22.10;79.50;;;;;;4924783;29;20025;-78
2022/08/24 07:16:36;;;;;;;7.85;3.10;;;22.20;79.50;;;;;;4925045;29;20032;-79
2022/08/24 07:19:04;;;;;;;5.65;2.95;;;22.40;79.10;;;;;;4925322;29;20028;-80
2022/08/24 07:21:31;;;;;;;5.60;2.75;;;22.50;78.60;;;;;;4922705;29;20027;-79
2022/08/24 07:23:57;;;;;;;6.22;2.70;;;22.60;78.50;;;;;;4924549;29;20527;-79
2022/08/24 07:26:26;;;;;;;8.10;3.75;;;22.70;78.50;;;;;;4924840;29;20394;-77
2022/08/24 07:28:54;;;;;;;5.38;2.88;;;22.90;78.10;;;;;;4924980;29;20083;-79
2022/08/24 07:31:20;;;;;;;5.05;2.65;;;23.10;77.50;;;;;;4936590;23;20416;-74
2022/08/24 07:33:46;;;;;;;8.90;2.53;;;23.10;77.00;;;;;;4913713;29;20046;-74
2022/08/24 07:36:13;;;;;;;5.25;2.40;;;23.10;77.10;;;;;;4913967;29;20024;-73
2022/08/24 07:38:39;;;;;;;3.40;2.22;;;23.20;76.60;;;;;;4913526;29;20036;-74
2022/08/24 07:41:04;;;;;;;2.63;1.88;;;23.20;76.50;;;;;;4914592;29;20048;-74
2022/08/24 07:43:30;;;;;;;5.93;2.50;;;23.30;76.40;;;;;;4914377;29;20039;-73
2022/08/24 07:45:55;;;;;;;5.82;2.40;;;23.40;76.50;;;;;;4914193;29;20087;-74
2022/08/24 07:48:21;;;;;;;8.23;2.85;;;23.60;76.30;;;;;;4914739;29;20508;-74
2022/08/24 07:50:46;;;;;;;2.63;1.90;;;23.60;75.60;;;;;;4913240;29;20099;-74
2022/08/24 07:53:12;;;;;;;4.28;1.98;;;23.80;75.30;;;;;;4914399;29;20516;-73
2022/08/24 07:55:38;;;;;;;4.70;2.45;;;23.90;74.90;;;;;;4911754;29;20482;-74
2022/08/24 07:58:03;;;;;;;6.80;2.30;;;24.00;74.60;;;;;;4913691;29;20016;-74
2022/08/24 08:00:29;;;;;;;4.20;2.38;;;24.10;74.30;;;;;;4914100;29;20164;-73
2022/08/24 08:02:55;;;;;;;4.03;2.22;;;24.20;74.00;;;;;;4896805;29;20036;-73
2022/08/24 08:05:22;;;;;;;4.13;2.10;;;24.30;73.80;;;;;;4913712;29;20039;-73
2022/08/24 08:07:49;;;;;;;8.18;2.55;;;24.40;73.70;;;;;;4913823;29;20043;-74
2022/08/24 08:10:15;;;;;;;3.92;1.83;;;24.40;73.30;;;;;;4914126;29;20028;-74
2022/08/24 08:12:40;;;;;;;4.20;2.33;;;24.40;73.30;;;;;;4911991;29;20079;-75
2022/08/24 08:15:08;;;;;;;10.80;2.67;;;24.60;73.00;;;;;;4913794;29;20028;-74
2022/08/24 08:17:35;;;;;;;2.35;1.92;;;24.60;72.50;;;;;;4913245;29;20028;-75
2022/08/24 08:20:01;;;;;;;3.33;2.22;;;24.70;72.00;;;;;;4913633;29;20365;-75
2022/08/24 08:25:11;;;;;;;2.75;2.25;;;24.70;72.20;;;;;;4913797;29;20078;-73
2022/08/24 08:27:36;;;;;;;3.03;1.95;;;24.90;72.40;;;;;;4912449;29;20107;-75
2022/08/24 08:30:04;;;;;;;4.22;1.90;;;25.00;71.60;;;;;;4913232;29;20028;-75
2022/08/24 08:32:30;;;;;;;6.40;2.00;;;25.10;70.60;;;;;;4912403;29;20036;-76
2022/08/24 08:34:55;;;;;;;14.00;3.05;;;25.20;71.10;;;;;;4913918;29;20453;-74
2022/08/24 08:37:21;;;;;;;4.90;2.42;;;25.30;70.80;;;;;;4914380;29;20028;-77
2022/08/24 08:39:47;;;;;;;3.88;1.63;;;25.40;70.30;;;;;;4911637;29;20367;-77
2022/08/24 08:42:16;;;;;;;11.65;2.17;;;25.40;70.10;;;;;;4912822;29;20429;-76
2022/08/24 08:44:51;;;;;;;3.42;1.55;;;25.50;69.80;;;;;;4913015;29;20386;-76
2022/08/24 08:47:36;;;;;;;2.57;1.63;;;25.50;69.60;;;;;;4912921;29;20031;-76
2022/08/24 08:50:13;;;;;;;2.15;1.35;;;25.50;68.70;;;;;;4913008;29;20512;-77
2022/08/24 08:52:47;;;;;;;4.72;1.40;;;25.70;68.50;;;;;;4911930;29;20032;-75
2022/08/24 08:55:22;;;;;;;3.67;1.40;;;25.70;67.10;;;;;;4910141;29;20046;-76
2022/08/24 08:58:07;;;;;;;3.85;2.03;;;25.90;67.40;;;;;;4911453;29;20016;-76
2022/08/24 09:00:48;;;;;;;6.15;2.08;;;25.90;67.10;;;;;;4912688;29;20028;-76
2022/08/24 09:03:28;;;;;;;3.67;1.58;;;26.00;67.10;;;;;;4912461;29;20488;-76
2022/08/24 09:06:18;;;;;;;30.13;4.85;;;26.20;66.50;;;;;;4912475;29;20107;-78
2022/08/24 09:09:06;;;;;;;3.63;2.17;;;26.30;66.20;;;;;;4912581;29;20497;-76
2022/08/24 09:12:10;;;;;;;3.85;1.92;;;26.40;64.90;;;;;;4911330;29;20172;-76
2022/08/24 09:14:47;;;;;;;2.75;1.50;;;26.40;65.60;;;;;;4912110;29;20035;-76
2022/08/24 09:17:20;;;;;;;2.70;1.70;;;26.60;65.00;;;;;;4911874;29;20036;-76
2022/08/24 09:19:53;;;;;;;4.53;1.73;;;26.60;63.90;;;;;;4910905;29;20519;-76
2022/08/24 09:22:20;;;;;;;5.13;1.52;;;26.50;63.70;;;;;;4911108;29;20076;-76
2022/08/24 09:25:01;;;;;;;11.20;2.03;;;26.50;63.80;;;;;;4911334;29;20036;-76
2022/08/24 09:27:45;;;;;;;4.50;1.95;;;26.50;63.60;;;;;;4910528;29;20028;-76
2022/08/24 09:30:23;;;;;;;3.67;1.30;;;26.40;64.20;;;;;;4911248;29;20063;-76
2022/08/24 09:32:59;;;;;;;2.65;1.20;;;26.50;64.10;;;;;;4911284;29;20039;-76
2022/08/24 09:35:43;;;;;;;;;;;26.50;63.90;;;;;;4912977;29;20032;-77
2022/08/24 09:38:49;;;;;;;4.38;1.85;;;26.60;64.20;;;;;;4912207;29;19911;-76
2022/08/24 09:41:43;;;;;;;2.08;0.90;;;26.80;63.90;;;;;;4911552;29;20047;-77
2022/08/24 09:44:24;;;;;;;11.48;2.05;;;26.90;61.20;;;;;;4912352;29;20036;-75
2022/08/24 09:47:09;;;;;;;4.25;1.10;;;27.00;61.60;;;;;;4910321;29;20512;-76
2022/08/24 09:50:11;;;;;;;12.45;2.58;;;27.10;62.10;;;;;;4911710;29;20504;-76
2022/08/24 09:53:04;;;;;;;6.95;1.63;;;27.30;61.20;;;;;;4911629;29;20036;-77
2022/08/24 09:56:14;;;;;;;3.72;1.20;;;27.30;61.20;;;;;;4910851;29;20020;-77
2022/08/24 09:59:29;;;;;;;6.13;1.40;;;27.40;61.30;;;;;;4911518;29;20119;-77
2022/08/24 10:02:37;;;;;;;3.13;1.80;;;27.50;60.50;;;;;;4910268;29;20020;-77
2022/08/24 10:05:25;;;;;;;3.83;1.38;;;27.50;59.60;;;;;;4911790;29;20016;-76
2022/08/24 10:08:24;;;;;;;4.53;1.67;;;27.50;59.30;;;;;;4911989;29;20099;-77
2022/08/24 10:10:55;;;;;;;4.40;1.42;;;27.60;57.90;;;;;;4910200;29;20421;-75
2022/08/24 10:13:45;;;;;;;4.22;1.17;;;27.60;58.70;;;;;;4912178;29;20080;-75
2022/08/24 10:16:31;;;;;;;4.25;1.20;;;27.80;59.20;;;;;;4911668;29;20064;-75
2022/08/24 10:19:25;;;;;;;5.05;1.55;;;27.90;58.80;;;;;;4911191;29;20028;-76
2022/08/24 10:22:11;;;;;;;4.30;1.88;;;28.00;58.80;;;;;;4913120;29;20032;-77
2022/08/24 10:25:01;;;;;;;3.53;1.52;;;28.00;58.10;;;;;;4915709;29;20335;-77
2022/08/24 10:27:43;;;;;;;4.55;1.20;;;28.00;58.60;;;;;;4915571;29;20036;-77
2022/08/24 10:30:46;;;;;;;7.63;0.98;;;28.10;58.20;;;;;;4914826;29;20020;-77
2022/08/24 10:33:21;;;;;;;3.28;1.52;;;28.20;58.00;;;;;;4915317;29;20040;-77
2022/08/24 10:36:15;;;;;;;7.30;1.92;;;28.40;56.60;;;;;;4914206;29;20381;-78
2022/08/24 10:41:55;;;;;;;4.05;1.10;;;28.60;57.00;;;;;;4914766;29;20075;-77
2022/08/24 10:44:58;;;;;;;4.43;1.75;;;28.60;57.60;;;;;;4915246;29;20091;-77
2022/08/24 10:47:29;;;;;;;4.10;2.05;;;28.60;56.80;;;;;;4915013;29;20024;-76
2022/08/24 10:50:01;;;;;;;2.05;1.00;;;28.70;57.10;;;;;;4915434;29;20056;-76
2022/08/24 10:52:48;;;;;;;3.13;1.17;;;28.70;56.50;;;;;;4914062;29;20024;-77
2022/08/24 10:55:20;;;;;;;7.55;3.42;;;28.80;57.00;;;;;;4915297;29;20020;-76
2022/08/24 10:58:05;;;;;;;2.50;1.10;;;29.00;55.60;;;;;;4914750;29;21082;-76
2022/08/24 11:00:31;;;;;;;4.93;1.90;;;29.00;55.80;;;;;;4914523;29;20040;-75
2022/08/24 11:03:10;;;;;;;2.33;1.73;;;29.20;56.60;;;;;;4914409;29;20580;-76
2022/08/24 11:05:56;;;;;;;1.50;1.10;;;29.20;56.60;;;;;;4914799;29;20504;-75
2022/08/24 11:08:28;;;;;;;3.03;1.15;;;29.50;55.20;;;;;;4914832;29;20047;-77
2022/08/24 11:11:13;;;;;;;2.00;1.38;;;29.30;55.20;;;;;;4913380;29;20046;-77
2022/08/24 11:13:57;;;;;;;6.38;1.13;;;29.10;55.60;;;;;;4914455;29;20034;-75
2022/08/24 11:16:29;;;;;;;2.60;1.40;;;29.10;55.80;;;;;;4914954;29;20035;-75
2022/08/24 11:18:57;;;;;;;4.53;1.23;;;29.40;56.40;;;;;;4913972;29;20024;-76
2022/08/24 11:21:46;;;;;;;2.47;1.08;;;29.50;55.80;;;;;;4913739;29;20448;-76
2022/08/24 11:24:25;;;;;;;4.13;1.58;;;29.60;55.50;;;;;;4914909;29;20372;-75
2022/08/24 11:27:15;;;;;;;2.58;1.23;;;29.60;55.30;;;;;;4913491;29;20020;-77
2022/08/24 11:29:52;;;;;;;7.65;1.65;;;29.60;54.80;;;;;;4913460;29;20035;-76
2022/08/24 11:32:32;;;;;;;5.88;1.80;;;29.70;54.80;;;;;;4914188;29;20036;-76
2022/08/24 11:35:23;;;;;;;4.78;1.95;;;29.70;54.50;;;;;;4914307;29;20446;-77
2022/08/24 11:37:51;;;;;;;4.03;1.42;;;29.60;54.10;;;;;;4913731;29;20031;-76
2022/08/24 11:40:20;;;;;;;3.88;1.67;;;29.60;54.50;;;;;;4913781;29;20035;-76
2022/08/24 11:43:21;;;;;;;5.35;1.33;;;29.60;54.70;;;;;;4913347;29;20095;-76
2022/08/24 11:46:02;;;;;;;9.35;2.00;;;29.60;54.80;;;;;;4912762;29;20346;-76
2022/08/24 11:48:54;;;;;;;5.93;1.85;;;29.80;55.00;;;;;;4914167;29;20032;-77
2022/08/24 11:51:37;;;;;;;7.65;2.33;;;29.90;54.80;;;;;;4913162;29;20056;-77
2022/08/24 11:54:30;;;;;;;5.45;3.65;;;30.00;53.80;;;;;;4913892;29;20024;-76
2022/08/24 11:57:33;;;;;;;10.57;3.00;;;30.10;54.50;;;;;;4914356;29;20373;-76
2022/08/24 12:00:23;;;;;;;8.43;1.75;;;30.30;54.20;;;;;;4912468;29;20028;-76
2022/08/24 12:03:07;;;;;;;5.55;2.55;;;30.30;53.70;;;;;;4914220;29;20027;-76
2022/08/24 12:05:38;;;;;;;6.28;2.42;;;30.20;52.80;;;;;;4914250;29;20166;-76
2022/08/24 12:08:26;;;;;;;27.67;20.27;;;30.20;53.50;;;;;;4914230;29;20039;-76
2022/08/24 12:11:00;;;;;;;8.20;6.15;;;30.30;53.00;;;;;;4913497;29;20547;-77
2022/08/24 12:13:42;;;;;;;15.57;10.57;;;30.20;52.90;;;;;;4913862;29;20028;-76
2022/08/24 12:16:44;;;;;;;10.35;9.07;;;30.00;52.60;;;;;;4912846;29;20087;-77
2022/08/24 12:19:26;;;;;;;3.60;2.88;;;29.90;52.90;;;;;;4913600;29;20032;-76
2022/08/24 12:21:56;;;;;;;6.57;2.20;;;29.60;52.80;;;;;;4913326;29;20425;-76
2022/08/24 12:24:28;;;;;;;8.00;6.10;;;29.60;53.40;;;;;;4913663;29;20492;-76
2022/08/24 12:27:01;;;;;;;19.80;8.25;;;29.70;53.00;;;;;;4913716;29;20028;-77
2022/08/24 12:29:29;;;;;;;6.53;4.95;;;29.70;53.10;;;;;;4913136;29;20543;-76
2022/08/24 12:32:07;;;;;;;3.25;2.30;;;29.80;53.60;;;;;;4912256;29;20044;-77
2022/08/24 12:34:47;;;;;;;7.28;1.42;;;29.90;52.20;;;;;;4913340;29;20115;-76
2022/08/24 12:37:39;;;;;;;4.88;2.67;;;29.80;52.90;;;;;;4913654;29;20028;-76
2022/08/24 12:40:21;;;;;;;8.73;4.40;;;29.70;52.60;;;;;;4913056;29;20440;-76
2022/08/24 12:42:57;;;;;;;13.80;9.35;;;29.90;52.40;;;;;;4912351;29;20036;-76
2022/08/24 12:45:23;;;;;;;3.63;2.85;;;29.90;50.40;;;;;;4912960;29;20028;-74
2022/08/24 12:48:10;;;;;;;3.85;1.75;;;29.70;50.40;;;;;;4911900;29;20028;-73
2022/08/24 12:50:48;;;;;;;5.55;1.75;;;29.60;50.30;;;;;;4912705;29;20500;-73
2022/08/24 12:53:43;;;;;;;6.63;2.35;;;29.60;50.30;;;;;;4913317;29;20370;-73
2022/08/24 12:56:24;;;;;;;8.83;3.53;;;29.80;51.40;;;;;;4913265;29;20035;-76
2022/08/24 12:59:01;;;;;;;3.80;1.55;;;29.90;50.50;;;;;;4912749;29;20296;-73
2022/08/24 13:01:32;;;;;;;3.55;1.13;;;29.80;50.20;;;;;;4911403;29;20374;-72
2022/08/24 13:04:07;;;;;;;6.10;2.83;;;29.80;49.90;;;;;;4912979;29;20110;-74
2022/08/24 13:06:58;;;;;;;6.07;2.88;;;29.80;50.20;;;;;;4910280;29;20087;-74
2022/08/24 13:09:34;;;;;;;12.77;8.02;;;29.60;50.80;;;;;;4912772;29;20420;-78
2022/08/24 13:12:31;;;;;;;9.07;5.15;;;29.70;51.20;;;;;;4911893;29;20038;-76
2022/08/24 13:15:23;;;;;;;4.22;1.98;;;29.90;51.70;;;;;;4912141;29;20048;-77
2022/08/24 13:18:08;;;;;;;8.43;3.08;;;30.10;50.00;;;;;;4911642;29;20481;-77
2022/08/24 13:20:33;;;;;;;15.88;10.75;;;30.20;50.30;;;;;;4911754;29;20032;-76
2022/08/24 13:23:02;;;;;;;3.05;2.75;;;30.30;49.00;;;;;;4911871;29;20508;-77